• Join FlightAware (Why Join?)
  • Login
  • US Flag 
05:09AM EDT


 

Airport Tracker/Info


-or-


 

Live Flight TrackerFlight Track Log ✈ UAL109 ✈ 16-Jul-2013 ✈ EGPH / EDI - KEWR

Flight Track Log - Related Links

Times and Time Zones

All times are in EDT time to prevent confusion due to time zone crossing. See the UAL109 flight status page for this flight to view local times or setup timezone preferences in your user account.

Time Position Orientation Groundspeed Altitude Reporting Facility
EDT Latitude Longitude Course Direction KTS MPH feet Rate Location/Type
06:58AM 55.9540 -3.3650 North  Level FlightAware
07:01AM 55.9560 -3.3620 40° Northeast 17 20 240 Level FlightAware
07:02AM 55.9570 -3.3580 66° East 21 24 480 Level FlightAware
07:02AM 55.9590 -3.3530 54° Northeast 20 23 600 Level FlightAware
07:02AM 55.9600 -3.3520 29° Northeast 12 14 720 Level FlightAware
07:04AM 55.9510 -3.3790 239° Southwest 170 196 960 Level FlightAware
07:04AM 55.9380 -3.4170 239° Southwest 166 191 1,600 2,640 Climbing FlightAware
07:05AM 55.9270 -3.4510 240° Southwest 171 197 2,700 1,920 Climbing FlightAware
07:05AM 55.9130 -3.4900 237° Southwest 191 220 3,600 1,920 Climbing FlightAware
07:06AM 55.9060 -3.5310 253° West 207 238 4,500 2,040 Climbing FlightAware
07:06AM 55.9020 -3.5800 253° West 222 255 5,500 2,040 Climbing FlightAware
07:06AM 55.8970 -3.5906 253° West 248 285 5,600 2,160 Climbing FlightAware UK
07:06AM 55.8970 -3.6290 260° West 241 277 6,400 1,980 Climbing FlightAware
07:07AM 55.8867 -3.6980 260° West 282 325 7,400 2,400 Climbing FlightAware UK
07:07AM 55.8798 -3.7618 259° West 288 331 8,900 2,460 Climbing FlightAware UK
07:08AM 55.8687 -3.8654 259° West 308 354 10,600 1,560 Climbing FlightAware UK
07:09AM 55.8581 -3.9714 260° West 354 407 11,300 1,500 Climbing FlightAware UK
07:10AM 55.8483 -4.0702 260° West 368 423 12,600 2,340 Climbing FlightAware UK
07:11AM 55.8323 -4.2570 261° West 384 442 15,300 2,160 Climbing FlightAware UK
07:12AM 55.8462 -4.5660 275° West 402 463 18,700 1,980 Climbing FlightAware UK
07:13AM 55.8521 -4.6798 275° West 410 472 19,900 1,860 Climbing FlightAware UK
07:13AM 55.8580 -4.7580 275° West 393 452 20,700 1,800 Climbing FlightAware
07:13AM 55.8568 -4.7757 275° West 416 479 20,800 1,800 Climbing FlightAware UK
07:14AM 55.8625 -4.8924 275° West 424 488 21,900 1,860 Climbing FlightAware UK
07:15AM 55.8671 -4.9909 275° West 430 495 22,900 1,620 Climbing FlightAware UK
07:15AM 55.8770 -5.1330 275° West 408 470 24,100 1,560 Climbing FlightAware
07:16AM 55.8830 -5.2600 275° West 414 476 25,100 1,620 Climbing FlightAware
07:16AM 55.8870 -5.3450 275° West 418 481 25,700 1,500 Climbing FlightAware
07:17AM 55.8950 -5.5010 275° West 420 483 26,900 1,500 Climbing FlightAware
07:18AM 55.9010 -5.6410 274° West 424 488 27,900 1,380 Climbing FlightAware
07:18AM 55.9080 -5.7820 275° West 428 493 28,800 1,140 Climbing FlightAware
07:19AM 55.9137 -5.9144 275° West 472 543 29,400 1,020 Climbing FlightAware UK
07:19AM 55.9150 -5.9410 275° West 434 499 29,600 720 Climbing FlightAware
07:20AM 55.9210 -6.0870 274° West 437 503 30,000 1,020 Climbing FlightAware
07:21AM 55.9270 -6.2280 274° West 428 493 31,000 1,500 Climbing FlightAware
07:21AM 55.9346 -6.3795 274° West 464 534 32,100 1,260 Climbing FlightAware UK
07:22AM 55.9422 -6.5669 274° West 462 532 33,100 1,080 Climbing FlightAware UK
07:22AM 55.9410 -6.5780 274° West 425 489 33,200 1,020 Climbing FlightAware
07:23AM 55.9470 -6.7200 274° West 425 489 33,900 540 Climbing FlightAware
07:24AM 55.9547 -6.8814 274° West 462 532 34,000 120 Climbing FlightAware UK
07:24AM 55.9520 -6.8750 274° West 429 494 34,000  Level FlightAware
07:24AM 55.9597 -7.0088 274° West 462 532 34,000  Level FlightAware UK
07:24AM 55.9580 -7.0210 274° West 431 496 34,000  Level FlightAware
07:25AM 55.9650 -7.2150 274° West 433 498 34,000  Level FlightAware
07:26AM 55.9711 -7.3284 274° West 462 532 34,000  Level FlightAware UK
07:26AM 55.9690 -7.3550 274° West 435 501 34,000  Level FlightAware
07:26AM 55.9730 -7.4840 273° West 437 503 34,000  Level FlightAware
07:27AM 55.9780 -7.6490 273° West 439 505 34,000  Level FlightAware
07:28AM 55.9863 -7.7808 273° West 460 529 34,000  Level FlightAware UK
07:28AM 55.9830 -7.8120 273° West 442 509 34,000  Level FlightAware
07:29AM 55.9870 -7.9570 273° West 444 511 34,000  Level FlightAware
07:29AM 55.9910 -8.1070 273° West 447 514 34,000  Level FlightAware
07:30AM 55.9999 -8.2412 273° West 464 534 34,000  Level FlightAware UK
07:30AM 56.0028 -8.3519 273° West 464 534 34,000  Level FlightAware UK
07:31AM 55.9970 -8.4060 273° West 447 514 34,000  Level FlightAware
07:31AM 56.0056 -8.4629 273° West 464 534 34,000  Level FlightAware UK
07:31AM 56.0084 -8.5741 273° West 466 536 34,000  Level FlightAware UK
07:32AM 56.0020 -8.5330 273° West 451 519 34,000  Level FlightAware
07:32AM 56.0070 -8.7450 273° West 453 521 34,000  Level FlightAware
07:33AM 56.0100 -8.9020 272° West 453 521 34,000  Level FlightAware
07:34AM 56.0130 -9.0500 272° West 453 521 34,000  Level FlightAware
07:34AM 56.0160 -9.2200 272° West 452 520 34,000  Level FlightAware
07:35AM 56.0190 -9.3660 272° West 452 520 34,000  Level FlightAware
07:36AM 56.0220 -9.5330 272° West 451 519 34,000  Level FlightAware
07:36AM 56.0240 -9.6830 271° West 451 519 34,000  Level FlightAware
07:37AM 56.0250 -9.7950 271° West 450 518 34,000  Level FlightAware
07:38AM 56.0280 -9.9610 272° West 449 517 34,000 180 Level FlightAware
07:38AM 56.0300 -10.1260 271° West 444 511 34,300 720 Climbing FlightAware
07:39AM 56.0310 -10.2850 271° West 442 509 35,100 480 Climbing FlightAware
07:40AM 56.0330 -10.4360 271° West 440 506 35,000 -120 Descending FlightAware
07:41AM 56.0340 -10.5860 271° West 437 503 35,000  Level FlightAware
07:41AM 56.0350 -10.7420 271° West 437 503 35,000  Level FlightAware
07:42AM 56.0360 -10.8840 271° West 436 502 35,000  Level FlightAware
07:43AM 56.0370 -11.0430 271° West 436 502 35,000  Level FlightAware
07:43AM 56.0370 -11.1830 270° West 436 502 35,000  Level FlightAware
07:44AM 56.0370 -11.3170 270° West 436 502 35,000  Level FlightAware
07:45AM 56.0380 -11.4770 271° West 435 501 35,000  Level FlightAware
07:45AM 56.0380 -11.6240 270° West 435 501 35,000  Level FlightAware
07:46AM 56.0380 -11.8190 270° West 435 501 35,000  Level FlightAware
07:47AM 56.0370 -11.9610 269° West 435 501 35,000  Level FlightAware
07:48AM 56.0370 -12.1280 270° West 434 499 35,000  Level FlightAware
07:49AM 56.0350 -12.3100 269° West 434 499 35,000  Level FlightAware
07:49AM 56.0340 -12.4200 269° West 434 499 35,000  Level FlightAware
07:50AM 56.0330 -12.5670 269° West 434 499 35,000  Level FlightAware
07:51AM 56.0320 -12.6770 269° West 434 499 35,000  Level FlightAware
07:52AM 56.0300 -12.8260 269° West 434 499 35,000  Level FlightAware
07:52AM 56.0290 -12.9420 269° West 434 499 35,000  Level FlightAware
07:53AM 56.0280 -13.0550 269° West 434 499 35,000  Level FlightAware
07:53AM 56.0270 -13.1650 269° West 434 499 35,000  Level FlightAware
07:54AM 56.0260 -13.3120 269° West 434 499 35,000  Level FlightAware
07:55AM 56.0250 -13.4220 269° West 434 499 35,000  Level FlightAware
07:56AM 56.0230 -13.5680 269° West 434 499 35,000  Level FlightAware
07:56AM 56.0220 -13.6780 269° West 434 499 35,000  Level FlightAware
07:57AM 56.0210 -13.8250 269° West 434 499 35,000  Level FlightAware
07:58AM 56.0190 -13.9350 268° West 434 499 35,000  Level FlightAware
08:00AM 56.0359 -14.3310 275° West  Level Estimated
08:01AM 56.0442 -14.5360 274° West  Level Estimated
08:02AM 56.0521 -14.7411 274° West  Level Estimated
08:03AM 56.0597 -14.9462 274° West  Level Estimated
08:04AM 56.0669 -15.1515 274° West  Level Estimated
08:05AM 56.0738 -15.3568 274° West  Level Estimated
08:06AM 56.0804 -15.5622 273° West  Level Estimated
08:07AM 56.0866 -15.7676 273° West  Level Estimated
08:08AM 56.0925 -15.9731 273° West  Level Estimated
08:09AM 56.0980 -16.1787 273° West  Level Estimated
08:10AM 56.1032 -16.3843 273° West  Level Estimated
08:11AM 56.1081 -16.5900 273° West  Level Estimated
08:12AM 56.1126 -16.7957 272° West  Level Estimated
08:13AM 56.1167 -17.0006 272° West  Level Estimated
08:14AM 56.1206 -17.2054 272° West  Level Estimated
08:15AM 56.1240 -17.4104 272° West  Level Estimated
08:16AM 56.1272 -17.6153 272° West  Level Estimated
08:17AM 56.1300 -17.8203 271° West  Level Estimated
08:18AM 56.1324 -18.0253 271° West  Level Estimated
08:19AM 56.1345 -18.2303 271° West  Level Estimated
08:20AM 56.1363 -18.4354 271° West  Level Estimated
08:21AM 56.1378 -18.6404 271° West  Level Estimated
08:22AM 56.1389 -18.8455 271° West  Level Estimated
08:23AM 56.1396 -19.0506 270° West  Level Estimated
08:24AM 56.1400 -19.2557 270° West  Level Estimated
08:25AM 56.1401 -19.4608 270° West  Level Estimated
08:26AM 56.1399 -19.6659 270° West  Level Estimated
08:27AM 56.1393 -19.8710 270° West  Level Estimated
08:27AM 57.0000 -20.0000 274° West 408 470 35,000  Level ETMS Enhanced Traffic Management System
08:28AM 56.1383 -20.0761 270° West  Level Estimated
08:29AM 56.1370 -20.2812 269° West  Level Estimated
08:30AM 56.1354 -20.4862 269° West  Level Estimated
08:31AM 56.1335 -20.6913 269° West  Level Estimated
08:32AM 56.1312 -20.8963 269° West  Level Estimated
08:33AM 57.0436 -21.2471 273° West 408 470 35,000  Level FlightAware Transoceanic
08:34AM 57.0496 -21.4552 273° West 408 470 35,000  Level FlightAware Transoceanic
08:35AM 57.0554 -21.6633 273° West 408 470 35,000  Level FlightAware Transoceanic
08:36AM 57.0607 -21.8716 273° West 408 470 35,000  Level FlightAware Transoceanic
08:37AM 57.0657 -22.0799 272° West 408 470 35,000  Level FlightAware Transoceanic
08:38AM 57.0704 -22.2882 272° West 408 470 35,000  Level FlightAware Transoceanic
08:39AM 57.0747 -22.4966 272° West 408 470 35,000  Level FlightAware Transoceanic
08:40AM 57.0787 -22.7051 272° West 408 470 35,000  Level FlightAware Transoceanic
08:41AM 57.0824 -22.9136 272° West 408 470 35,000  Level FlightAware Transoceanic
08:42AM 57.0857 -23.1221 272° West 408 470 35,000  Level FlightAware Transoceanic
08:43AM 57.0886 -23.3307 271° West 408 470 35,000  Level FlightAware Transoceanic
08:44AM 57.0912 -23.5393 271° West 408 470 35,000  Level FlightAware Transoceanic
08:45AM 57.0935 -23.7479 271° West 408 470 35,000  Level FlightAware Transoceanic
08:46AM 57.0954 -23.9566 271° West 408 470 35,000  Level FlightAware Transoceanic
08:47AM 57.0969 -24.1652 271° West 408 470 35,000  Level FlightAware Transoceanic
08:48AM 57.0981 -24.3739 271° West 408 470 35,000  Level FlightAware Transoceanic
08:49AM 57.0990 -24.5826 270° West 408 470 35,000  Level FlightAware Transoceanic
08:50AM 57.0995 -24.7913 270° West 408 470 35,000  Level FlightAware Transoceanic
08:51AM 57.0997 -25.0000 270° West 408 470 35,000  Level FlightAware Transoceanic
08:52AM 57.0995 -25.2087 270° West 408 470 35,000  Level FlightAware Transoceanic
08:53AM 57.0990 -25.4174 270° West 408 470 35,000  Level FlightAware Transoceanic
08:54AM 57.0981 -25.6261 269° West 408 470 35,000  Level FlightAware Transoceanic
08:55AM 57.0969 -25.8348 269° West 408 470 35,000  Level FlightAware Transoceanic
08:56AM 57.0954 -26.0434 269° West 408 470 35,000  Level FlightAware Transoceanic
08:57AM 57.0935 -26.2521 269° West 408 470 35,000  Level FlightAware Transoceanic
08:58AM 57.0912 -26.4607 269° West 408 470 35,000  Level FlightAware Transoceanic
08:59AM 57.0886 -26.6693 269° West 408 470 35,000  Level FlightAware Transoceanic
09:00AM 57.0857 -26.8779 268° West 408 470 35,000  Level FlightAware Transoceanic
09:01AM 57.0824 -27.0864 268° West 408 470 35,000  Level FlightAware Transoceanic
09:02AM 57.0787 -27.2949 268° West 408 470 35,000  Level FlightAware Transoceanic
09:03AM 57.0747 -27.5034 268° West 408 470 35,000  Level FlightAware Transoceanic
09:04AM 57.0704 -27.7118 268° West 408 470 35,000  Level FlightAware Transoceanic
09:05AM 57.0657 -27.9201 268° West 408 470 35,000  Level FlightAware Transoceanic
09:06AM 57.0607 -28.1284 267° West 408 470 35,000  Level FlightAware Transoceanic
09:07AM 57.0554 -28.3367 267° West 408 470 35,000  Level FlightAware Transoceanic
09:08AM 57.0496 -28.5448 267° West 408 470 35,000  Level FlightAware Transoceanic
09:09AM 57.0436 -28.7529 267° West 408 470 35,000  Level FlightAware Transoceanic
09:10AM 57.0372 -28.9610 267° West 408 470 35,000  Level FlightAware Transoceanic
09:11AM 57.0304 -29.1689 267° West 408 470 35,000  Level FlightAware Transoceanic
09:12AM 57.0233 -29.3768 266° West 408 470 35,000  Level FlightAware Transoceanic
09:13AM 57.0159 -29.5846 266° West 408 470 35,000  Level FlightAware Transoceanic
09:14AM 57.0081 -29.7924 266° West 408 470 35,000  Level FlightAware Transoceanic
09:15AM 56.9999 -30.0017 266° West  Level FlightAware Approximate
09:16AM 57.0001 -30.0033 274° West  Level FlightAware Approximate
09:17AM 57.0083 -30.2126 274° West  Level FlightAware Approximate
09:18AM 57.0161 -30.4220 274° West  Level FlightAware Approximate
09:19AM 57.0236 -30.6315 274° West  Level FlightAware Approximate
09:20AM 57.0308 -30.8411 274° West  Level FlightAware Approximate
09:21AM 57.0375 -31.0507 273° West  Level FlightAware Approximate
09:22AM 57.0440 -31.2604 273° West  Level FlightAware Approximate
09:23AM 57.0500 -31.4702 273° West  Level FlightAware Approximate
09:24AM 57.0558 -31.6801 273° West  Level FlightAware Approximate
09:25AM 57.0611 -31.8900 273° West  Level FlightAware Approximate
09:26AM 57.0662 -32.0999 273° West  Level FlightAware Approximate
09:27AM 57.0709 -32.3100 272° West  Level FlightAware Approximate
09:28AM 57.0752 -32.5201 272° West  Level FlightAware Approximate
09:29AM 57.0792 -32.7302 272° West  Level FlightAware Approximate
09:30AM 57.0828 -32.9404 272° West  Level FlightAware Approximate
09:31AM 57.0861 -33.1506 272° West  Level FlightAware Approximate
09:32AM 57.0890 -33.3608 272° West  Level FlightAware Approximate
09:33AM 57.0915 -33.5711 271° West  Level FlightAware Approximate
09:34AM 57.0938 -33.7814 271° West  Level FlightAware Approximate
09:35AM 57.0956 -33.9917 271° West  Level FlightAware Approximate
09:36AM 57.0971 -34.2021 271° West  Level FlightAware Approximate
09:37AM 57.0983 -34.4124 271° West  Level FlightAware Approximate
09:38AM 57.0991 -34.6228 270° West  Level FlightAware Approximate
09:39AM 57.0996 -34.8332 270° West  Level FlightAware Approximate
09:40AM 57.0997 -35.0436 270° West  Level FlightAware Approximate
09:41AM 57.0994 -35.2539 270° West  Level FlightAware Approximate
09:42AM 57.0988 -35.4643 270° West  Level FlightAware Approximate
09:43AM 57.0979 -35.6747 270° West  Level FlightAware Approximate
09:44AM 57.0966 -35.8850 269° West  Level FlightAware Approximate
09:45AM 57.0949 -36.0954 269° West  Level FlightAware Approximate
09:46AM 57.0929 -36.3057 269° West  Level FlightAware Approximate
09:47AM 57.0905 -36.5160 269° West  Level FlightAware Approximate
09:48AM 57.0878 -36.7262 269° West  Level FlightAware Approximate
09:49AM 57.0848 -36.9365 269° West  Level FlightAware Approximate
09:50AM 57.0813 -37.1467 268° West  Level FlightAware Approximate
09:51AM 57.0776 -37.3568 268° West  Level FlightAware Approximate
09:52AM 57.0734 -37.5669 268° West  Level FlightAware Approximate
09:53AM 57.0690 -37.7770 268° West  Level FlightAware Approximate
09:54AM 57.0642 -37.9870 268° West  Level FlightAware Approximate
09:55AM 57.0590 -38.1969 267° West  Level FlightAware Approximate
09:56AM 57.0535 -38.4068 267° West  Level FlightAware Approximate
09:57AM 57.0476 -38.6167 267° West  Level FlightAware Approximate
09:58AM 57.0414 -38.8264 267° West  Level FlightAware Approximate
09:59AM 57.0348 -39.0361 267° West  Level FlightAware Approximate
10:00AM 57.0278 -39.2457 267° West  Level FlightAware Approximate
10:01AM 57.0206 -39.4553 266° West  Level FlightAware Approximate
10:02AM 57.0129 -39.6647 266° West  Level FlightAware Approximate
10:03AM 57.0050 -39.8741 266° West  Level FlightAware Approximate
10:04AM 56.9952 -40.0831 264° West  Level FlightAware Approximate
10:05AM 56.9828 -40.2916 264° West  Level FlightAware Approximate
10:06AM 56.9700 -40.5000 264° West  Level FlightAware Approximate
10:07AM 56.9569 -40.7082 264° West  Level FlightAware Approximate
10:08AM 56.9435 -40.9163 263° West  Level FlightAware Approximate
10:09AM 56.9297 -41.1242 263° West  Level FlightAware Approximate
10:10AM 56.9156 -41.3320 263° West  Level FlightAware Approximate
10:11AM 56.9011 -41.5396 263° West  Level FlightAware Approximate
10:12AM 56.8863 -41.7471 263° West  Level FlightAware Approximate
10:13AM 56.8711 -41.9544 262° West  Level FlightAware Approximate
10:14AM 56.8556 -42.1615 262° West  Level FlightAware Approximate
10:15AM 56.8398 -42.3684 262° West  Level FlightAware Approximate
10:16AM 56.8236 -42.5752 262° West  Level FlightAware Approximate
10:17AM 56.8071 -42.7818 262° West  Level FlightAware Approximate
10:18AM 56.7902 -42.9882 262° West  Level FlightAware Approximate
10:19AM 56.7730 -43.1944 261° West  Level FlightAware Approximate
10:20AM 56.7555 -43.4004 261° West  Level FlightAware Approximate
10:21AM 56.7376 -43.6063 261° West  Level FlightAware Approximate
10:22AM 56.7193 -43.8119 261° West  Level FlightAware Approximate
10:23AM 56.7008 -44.0173 261° West  Level FlightAware Approximate
10:24AM 56.6819 -44.2226 261° West  Level FlightAware Approximate
10:25AM 56.6626 -44.4276 260° West  Level FlightAware Approximate
10:26AM 56.6431 -44.6324 260° West  Level FlightAware Approximate
10:27AM 56.6232 -44.8370 260° West  Level FlightAware Approximate
10:28AM 56.6029 -45.0414 260° West  Level FlightAware Approximate
10:29AM 56.5823 -45.2455 260° West  Level FlightAware Approximate
10:30AM 56.5614 -45.4495 260° West  Level FlightAware Approximate
10:31AM 56.5402 -45.6532 259° West  Level FlightAware Approximate
10:32AM 56.5186 -45.8567 259° West  Level FlightAware Approximate
10:33AM 56.4967 -46.0599 259° West  Level FlightAware Approximate
10:34AM 56.4744 -46.2629 259° West  Level FlightAware Approximate
10:35AM 56.4519 -46.4657 259° West  Level FlightAware Approximate
10:36AM 56.4290 -46.6682 259° West  Level FlightAware Approximate
10:37AM 56.4057 -46.8705 258° West  Level FlightAware Approximate
10:38AM 56.3822 -47.0725 258° West  Level FlightAware Approximate
10:39AM 56.3583 -47.2743 258° West  Level FlightAware Approximate
10:40AM 56.3340 -47.4758 258° West  Level FlightAware Approximate
10:41AM 56.3095 -47.6771 258° West  Level FlightAware Approximate
10:42AM 56.2846 -47.8781 258° West  Level FlightAware Approximate
10:43AM 56.2594 -48.0788 257° West  Level FlightAware Approximate
10:44AM 56.2339 -48.2793 257° West  Level FlightAware Approximate
10:45AM 56.2081 -48.4795 257° West  Level FlightAware Approximate
10:46AM 56.1819 -48.6795 257° West  Level FlightAware Approximate
10:47AM 56.1554 -48.8791 257° West  Level FlightAware Approximate
10:48AM 56.1286 -49.0785 257° West  Level FlightAware Approximate
10:49AM 56.1015 -49.2776 256° West  Level FlightAware Approximate
10:50AM 56.0740 -49.4764 256° West  Level FlightAware Approximate
10:51AM 56.0462 -49.6750 256° West  Level FlightAware Approximate
10:52AM 56.0182 -49.8732 256° West  Level FlightAware Approximate
10:53AM 55.9835 -50.0673 246° West  Level FlightAware Approximate
10:54AM 55.9376 -50.2542 246° West  Level FlightAware Approximate
10:55AM 55.8913 -50.4407 246° West  Level FlightAware Approximate
10:56AM 55.8448 -50.6267 246° West  Level FlightAware Approximate
10:57AM 55.7980 -50.8123 246° West  Level FlightAware Approximate
10:58AM 55.7509 -50.9974 246° West  Level FlightAware Approximate
10:59AM 55.7036 -51.1821 246° West  Level FlightAware Approximate
11:00AM 55.6559 -51.3663 245° Southwest  Level FlightAware Approximate
11:01AM 55.6080 -51.5501 245° Southwest  Level FlightAware Approximate
11:02AM 55.5598 -51.7335 245° Southwest  Level FlightAware Approximate
11:03AM 55.5114 -51.9163 245° Southwest  Level FlightAware Approximate
11:04AM 55.4626 -52.0988 245° Southwest  Level FlightAware Approximate
11:05AM 55.4136 -52.2807 245° Southwest  Level FlightAware Approximate
11:06AM 55.3644 -52.4623 245° Southwest  Level FlightAware Approximate
11:07AM 55.3148 -52.6433 244° Southwest  Level FlightAware Approximate
11:08AM 55.2650 -52.8240 244° Southwest  Level FlightAware Approximate
11:09AM 55.2149 -53.0041 244° Southwest  Level FlightAware Approximate
11:09AM 55.0667 -54.2333 243° Southwest 450 518 35,000  Level Moncton Center
11:10AM 55.1646 -53.1838 244° Southwest  Level FlightAware Approximate
11:10AM 55.0167 -54.3667 237° Southwest 450 518 35,000  Level Gander Center
11:11AM 55.1140 -53.3631 244° Southwest  Level FlightAware Approximate
11:11AM 54.9333 -54.5833 236° Southwest 450 518 35,000  Level Gander Center
11:12AM 55.0631 -53.5419 244° Southwest  Level FlightAware Approximate
11:12AM 54.9000 -54.7667 253° West 450 518 35,000  Level Gander Center
11:13AM 55.0120 -53.7202 243° Southwest  Level FlightAware Approximate
11:13AM 54.8333 -54.9833 242° Southwest 450 518 35,000  Level Gander Center
11:14AM 54.9606 -53.8981 243° Southwest  Level FlightAware Approximate
11:14AM 54.7833 -55.1667 245° Southwest 450 518 35,000  Level Gander Center
11:15AM 54.9090 -54.0756 243° Southwest  Level FlightAware Approximate
11:15AM 54.7333 -55.3500 245° Southwest 450 518 35,000  Level Gander Center
11:16AM 54.6833 -55.5500 247° West 450 518 35,000  Level Gander Center
11:17AM 54.6333 -55.7667 248° West 450 518 35,000  Level Gander Center
11:18AM 54.5667 -55.9500 238° Southwest 460 529 35,000  Level Gander Center
11:19AM 54.5000 -56.1333 238° Southwest 460 529 35,000  Level Gander Center
11:20AM 54.4000 -56.2833 221° Southwest 460 529 35,000 360 Level Gander Center
11:21AM 54.3167 -56.4667 232° Southwest 460 529 35,800 480 Climbing Gander Center
11:22AM 54.2500 -56.6167 233° Southwest 460 529 36,000 60 Climbing Gander Center
11:23AM 54.1500 -56.7667 221° Southwest 460 529 36,000  Level Gander Center
11:24AM 54.0667 -56.9500 232° Southwest 460 529 36,000  Level Gander Center
11:25AM 53.9833 -57.1000 227° Southwest 460 529 36,000  Level Gander Center
11:26AM 53.9000 -57.2500 227° Southwest 450 518 36,000  Level Gander Center
11:27AM 53.8000 -57.4333 227° Southwest 460 529 36,000  Level Gander Center
11:28AM 53.7167 -57.5833 227° Southwest 460 529 36,000  Level Gander Center
11:29AM 53.6333 -57.7500 230° Southwest 460 529 36,000  Level Gander Center
11:30AM 53.5500 -57.9000 227° Southwest 460 529 36,000  Level Gander Center
11:31AM 53.4667 -58.0500 227° Southwest 460 529 36,000  Level Gander Center
11:32AM 53.3667 -58.2333 228° Southwest 460 529 36,000  Level Gander Center
11:33AM 53.3000 -58.3667 230° Southwest 460 529 36,000  Level Gander Center
11:34AM 53.2167 -58.5500 233° Southwest 460 529 36,000  Level Gander Center
11:35AM 53.1167 -58.6833 219° Southwest 460 529 36,000  Level Gander Center
11:36AM 53.0333 -58.8333 227° Southwest 460 529 36,000  Level Gander Center
11:37AM 52.9333 -59.0000 225° Southwest 460 529 36,000  Level Gander Center
11:38AM 52.8667 -59.1500 234° Southwest 460 529 36,000  Level Gander Center
11:39AM 52.7833 -59.3167 230° Southwest 460 529 36,000  Level Gander Center
11:40AM 52.6833 -59.4667 222° Southwest 460 529 36,000  Level Gander Center
11:41AM 52.6000 -59.6333 231° Southwest 460 529 36,000  Level Gander Center
11:42AM 52.5167 -59.7667 224° Southwest 460 529 36,000  Level Gander Center
11:44AM 52.3333 -60.0833 227° Southwest 450 518 36,000  Level Gander Center
11:45AM 52.2500 -60.2167 224° Southwest 450 518 36,000  Level Gander Center
11:46AM 52.1500 -60.3500 219° Southwest 450 518 36,000  Level Gander Center
11:47AM 52.0667 -60.5000 228° Southwest 450 518 36,000  Level Gander Center
11:48AM 51.9667 -60.6500 223° Southwest 450 518 36,000  Level Gander Center
11:49AM 51.9000 -60.8000 234° Southwest 440 506 36,000  Level Gander Center
11:51AM 51.7333 -61.1000 228° Southwest 440 506 36,000  Level Gander Center
11:52AM 51.6500 -61.2500 228° Southwest 440 506 36,000  Level Gander Center
11:53AM 51.5667 -61.3833 225° Southwest 440 506 36,000  Level Gander Center
11:54AM 51.5000 -61.5500 237° Southwest 440 506 36,000  Level Gander Center
11:55AM 51.4167 -61.7167 231° Southwest 440 506 36,000  Level Gander Center
11:56AM 51.3333 -61.8500 225° Southwest 440 506 36,000  Level Gander Center
11:57AM 51.2500 -62.0000 228° Southwest 440 506 36,000  Level Gander Center
11:58AM 51.1833 -62.1333 231° Southwest 440 506 36,000  Level Gander Center
11:59AM 51.1000 -62.2667 225° Southwest 440 506 36,000  Level Gander Center
12:00PM 51.0167 -62.4333 232° Southwest 440 506 36,000  Level Gander Center
12:01PM 50.9333 -62.5833 229° Southwest 440 506 36,000  Level Gander Center
12:02PM 50.8667 -62.7167 232° Southwest 440 506 36,000  Level Gander Center
12:03PM 50.7833 -62.8667 229° Southwest 450 518 36,000  Level Gander Center
12:04PM 50.6833 -63.0167 224° Southwest 450 518 36,000  Level Gander Center
12:05PM 50.6000 -63.1833 232° Southwest 450 518 36,000  Level Gander Center
12:06PM 50.5167 -63.3000 222° Southwest 450 518 36,000  Level Gander Center
12:07PM 50.4333 -63.4667 232° Southwest 450 518 36,000  Level Gander Center
12:08PM 50.3500 -63.5833 222° Southwest 440 506 36,000  Level Gander Center
12:09PM 50.2667 -63.7333 229° Southwest 440 506 36,000  Level Gander Center
12:10PM 50.1833 -63.8667 226° Southwest 430 495 36,000  Level Gander Center
12:11PM 50.1000 -64.0167 229° Southwest 430 495 36,000  Level Gander Center
12:12PM 50.0167 -64.1500 226° Southwest 430 495 36,000  Level Gander Center
12:13PM 49.9500 -64.2667 228° Southwest 420 483 36,000  Level Gander Center
12:14PM 49.8667 -64.4167 229° Southwest 420 483 36,000  Level Gander Center
12:15PM 49.7833 -64.5500 226° Southwest 420 483 36,000  Level Gander Center
12:16PM 49.7000 -64.6667 222° Southwest 420 483 36,000  Level Gander Center
12:17PM 49.6333 -64.8167 236° Southwest 420 483 36,000  Level Gander Center
12:18PM 49.5500 -64.9333 222° Southwest 420 483 36,000  Level Gander Center
12:19PM 49.4500 -65.0667 221° Southwest 430 495 36,000  Level Gander Center
12:20PM 49.3833 -65.2167 236° Southwest 430 495 36,000  Level Gander Center
12:21PM 49.3000 -65.3333 222° Southwest 430 495 36,000  Level Gander Center
12:22PM 49.2000 -65.4833 224° Southwest 430 495 36,000  Level Gander Center
12:23PM 49.1333 -65.6000 229° Southwest 430 495 36,000  Level Gander Center
12:24PM 49.0500 -65.7500 230° Southwest 440 506 36,000  Level Gander Center
12:25PM 48.9500 -65.8833 221° Southwest 440 506 36,000  Level Gander Center
12:26PM 48.8667 -66.0167 226° Southwest 430 495 36,000  Level Gander Center
12:27PM 48.8000 -66.1333 229° Southwest 430 495 36,000  Level Gander Center
12:28PM 48.7000 -66.2667 221° Southwest 440 506 36,000  Level Gander Center
12:29PM 48.6167 -66.3833 223° Southwest 440 506 36,000  Level Gander Center
12:30PM 48.5333 -66.5333 230° Southwest 440 506 36,000  Level Gander Center
12:36PM 48.0620 -67.2570 230° Southwest 443 510 36,000  Level FlightAware
12:37PM 48.0000 -67.3490 225° Southwest 443 510 36,000  Level FlightAware
12:37PM 47.9460 -67.4290 225° Southwest 444 511 36,000  Level FlightAware
12:38PM 47.9100 -67.4820 225° Southwest 444 511 36,000  Level FlightAware
12:39PM 47.7850 -67.6670 225° Southwest 441 507 36,000  Level FlightAware
12:40PM 47.7220 -67.7580 224° Southwest 439 505 36,000  Level FlightAware
12:41PM 47.6640 -67.8430 225° Southwest 436 502 36,000  Level FlightAware
12:41PM 47.5870 -67.9550 224° Southwest 435 501 36,000  Level FlightAware
12:42PM 47.5360 -68.0290 224° Southwest 434 499 36,000  Level FlightAware
12:43PM 47.4680 -68.1270 224° Southwest 434 499 36,000  Level FlightAware
12:43PM 47.4100 -68.2110 224° Southwest 434 499 36,000  Level FlightAware
12:44PM 47.3470 -68.3010 224° Southwest 433 498 36,000  Level FlightAware
12:45PM 47.2860 -68.3870 224° Southwest 433 498 36,000  Level FlightAware
12:46PM 47.2220 -68.4790 224° Southwest 434 499 36,000  Level FlightAware
12:46PM 47.1660 -68.5590 224° Southwest 434 499 36,000  Level FlightAware
12:47PM 47.1050 -68.6450 224° Southwest 437 503 36,000  Level FlightAware
12:48PM 47.0460 -68.7280 224° Southwest 437 503 36,000  Level FlightAware
12:48PM 46.9890 -68.8090 224° Southwest 438 504 36,000  Level FlightAware
12:49PM 46.9280 -68.8930 223° Southwest 439 505 36,000  Level FlightAware
12:50PM 46.8750 -68.9680 224° Southwest 439 505 36,000  Level FlightAware
12:50PM 46.8110 -69.0570 224° Southwest 439 505 36,000  Level FlightAware
12:51PM 46.7550 -69.1340 223° Southwest 441 507 36,000  Level FlightAware
12:52PM 46.7000 -69.2110 224° Southwest 441 507 36,000  Level FlightAware
12:52PM 46.6300 -69.3070 223° Southwest 442 509 36,000  Level FlightAware
12:53PM 46.5830 -69.3710 223° Southwest 441 507 36,000  Level FlightAware
12:54PM 46.5140 -69.4660 223° Southwest 442 509 36,000  Level FlightAware
12:54PM 46.4470 -69.5570 223° Southwest 444 511 36,000  Level FlightAware
12:55PM 46.3830 -69.6440 223° Southwest 444 511 36,000  Level FlightAware
12:56PM 46.3260 -69.7220 223° Southwest 445 512 36,000  Level FlightAware
12:56PM 46.2670 -69.8000 222° Southwest 446 513 36,000  Level FlightAware
12:57PM 46.2060 -69.8820 223° Southwest 447 514 36,000  Level FlightAware
12:58PM 46.1470 -69.9630 224° Southwest 448 516 36,000  Level FlightAware
12:58PM 46.0840 -70.0470 223° Southwest 450 518 36,000  Level FlightAware
12:59PM 46.0220 -70.1290 223° Southwest 450 518 36,000  Level FlightAware
01:00PM 45.9580 -70.2130 222° Southwest 450 518 36,000  Level FlightAware
01:00PM 45.9080 -70.2800 223° Southwest 452 520 36,000  Level FlightAware
01:01PM 45.8320 -70.3790 222° Southwest 452 520 36,000  Level FlightAware
01:02PM 45.7440 -70.4950 223° Southwest 453 521 36,000  Level FlightAware
01:03PM 45.6650 -70.5990 223° Southwest 453 521 36,000  Level FlightAware
01:04PM 45.5980 -70.6850 222° Southwest 454 522 36,000  Level FlightAware
01:04PM 45.5320 -70.7700 222° Southwest 455 524 36,000  Level FlightAware
01:05PM 45.4820 -70.8350 222° Southwest 455 524 36,000  Level FlightAware
01:06PM 45.4110 -70.9270 222° Southwest 456 525 36,000  Level FlightAware
01:06PM 45.3390 -71.0190 222° Southwest 456 525 36,000  Level FlightAware
01:07PM 45.2930 -71.0780 222° Southwest 457 526 36,000  Level FlightAware
01:08PM 45.2220 -71.1680 222° Southwest 458 527 36,000  Level FlightAware
01:08PM 45.1590 -71.2480 222° Southwest 459 528 36,000  Level FlightAware
01:09PM 45.0790 -71.3490 222° Southwest 455 524 36,000  Level FlightAware
01:10PM 45.0160 -71.4290 222° Southwest 455 524 36,000  Level FlightAware
01:11PM 44.9510 -71.5100 221° Southwest 456 525 36,000  Level FlightAware
01:11PM 44.8810 -71.5980 222° Southwest 456 525 36,000  Level FlightAware
01:12PM 44.7960 -71.7030 221° Southwest 458 527 36,000  Level FlightAware
01:13PM 44.7320 -71.7830 222° Southwest 458 527 36,000  Level FlightAware
01:14PM 44.6610 -71.8700 221° Southwest 458 527 36,000  Level FlightAware
01:14PM 44.6030 -71.9420 221° Southwest 459 528 36,000  Level FlightAware
01:15PM 44.5450 -72.0130 221° Southwest 466 536 36,000  Level FlightAware
01:16PM 44.4590 -72.1180 221° Southwest 466 536 36,000  Level FlightAware
01:16PM 44.3940 -72.1970 221° Southwest 465 535 36,000  Level FlightAware
01:17PM 44.3200 -72.2870 221° Southwest 465 535 36,000  Level FlightAware
01:18PM 44.2620 -72.3570 221° Southwest 463 533 36,000  Level FlightAware
01:18PM 44.1840 -72.4510 221° Southwest 462 532 36,000  Level FlightAware
01:19PM 44.1260 -72.5210 221° Southwest 462 532 36,000 -180 Level FlightAware
01:20PM 44.0610 -72.5990 221° Southwest 462 532 35,800 -720 Descending FlightAware
01:20PM 44.0010 -72.6700 220° Southwest 465 535 35,100 -1,140 Descending FlightAware
01:21PM 43.9370 -72.7460 221° Southwest 468 539 34,400 -1,140 Descending FlightAware
01:22PM 43.8700 -72.8260 221° Southwest 470 541 33,600 -1,080 Descending FlightAware
01:22PM 43.7960 -72.9140 221° Southwest 469 540 32,900 -900 Descending FlightAware
01:23PM 43.7420 -72.9770 220° Southwest 468 539 32,400 -1,020 Descending FlightAware
01:24PM 43.6640 -73.0690 220° Southwest 467 537 31,600 -960 Descending FlightAware
01:24PM 43.6000 -73.1440 220° Southwest 463 533 31,100 -780 Descending FlightAware
01:25PM 43.5250 -73.2310 220° Southwest 452 520 30,500 -720 Descending FlightAware
01:26PM 43.4410 -73.3290 220° Southwest 445 512 29,900 -960 Descending FlightAware
01:27PM 43.3560 -73.4270 220° Southwest 444 511 28,800 -2,160 Descending FlightAware
01:28PM 43.2950 -73.4980 220° Southwest 442 509 26,500 -2,100 Descending FlightAware
01:28PM 43.2310 -73.5720 220° Southwest 426 490 25,800 -1,740 Descending FlightAware
01:29PM 43.1470 -73.6380 210° Southwest 427 491 24,000 -1,740 Descending FlightAware
01:30PM 43.0870 -73.6650 198° South 424 488 23,600 -1,740 Descending FlightAware
01:31PM 42.9970 -73.7010 196° South 416 479 21,700 -2,580 Descending FlightAware
01:31PM 42.9200 -73.7330 197° South 406 467 19,900 -2,520 Descending FlightAware
01:32PM 42.8500 -73.7620 197° South 395 455 18,300 -2,340 Descending FlightAware
01:33PM 42.7390 -73.8080 197° South 387 445 15,900 -1,440 Descending FlightAware
01:34PM 42.6850 -73.8300 197° South 387 445 15,900  Level FlightAware
01:34PM 42.6140 -73.8600 197° South 387 445 15,900  Level FlightAware
01:35PM 42.5610 -73.8820 197° South 387 445 15,900  Level FlightAware
01:36PM 42.5080 -73.9040 197° South 387 445 15,900  Level FlightAware
01:37PM 42.4170 -73.9420 197° South 387 445 15,900 60 Level FlightAware
01:38PM 42.2747 -74.0142 197° South 388 447 16,100 60 Climbing Boston Center
01:39PM 42.1722 -74.0592 198° South 388 447 16,100 -1,080 Level Boston Center
01:44PM 41.6410 -74.2860 198° South 305 351 9,100 -1,200 Descending FlightAware
01:45PM 41.6110 -74.2980 197° South 305 351 9,100  Level FlightAware
01:45PM 41.5840 -74.3100 198° South 305 351 9,100  Level FlightAware
01:46PM 41.5420 -74.3260 196° South 305 351 9,100  Level FlightAware